Time;durP1;ratioP1;P1;durP2;ratioP2;P2;SDS_P1;SDS_P2;PMS_P1;PMS_P2;Temp;Humidity;BMP_temperature;BMP_pressure;BME280_temperature;BME280_humidity;BME280_pressure;Samples;Min_cycle;Max_cycle;Signal;HPM_P1;HPM_P2
2023/02/18 00:00:45;;;;;;;41.03;19.90;;;6.80;84.60;;;;;;4998225;28;20214;-93
2023/02/18 00:03:14;;;;;;;48.80;19.97;;;6.80;84.80;;;;;;4997607;28;20178;-92
2023/02/18 00:16:25;;;;;;;45.05;22.58;;;6.80;84.60;;;;;;4567229;27;15135514;-92
2023/02/18 00:18:57;;;;;;;37.03;20.90;;;6.80;84.00;;;;;;5073323;28;20241;-93
2023/02/18 00:21:23;;;;;;;43.27;22.10;;;6.70;84.30;;;;;;5074533;28;20179;-92
2023/02/18 00:23:49;;;;;;;32.73;20.27;;;6.70;84.40;;;;;;5075760;28;20686;-93
2023/02/18 00:26:24;;;;;;;41.93;20.37;;;6.70;84.40;;;;;;5079765;28;20210;-94
2023/02/18 00:28:59;;;;;;;46.23;19.27;;;6.60;84.40;;;;;;5080521;28;20611;-93
2023/02/18 00:31:51;;;;;;;44.10;18.97;;;6.60;84.60;;;;;;5079435;28;20286;-93
2023/02/18 00:34:38;;;;;;;38.17;19.17;;;6.60;84.50;;;;;;5079721;28;20221;-93
2023/02/18 00:37:21;;;;;;;47.00;20.10;;;6.50;84.60;;;;;;5080111;28;20638;-93
2023/02/18 00:39:47;;;;;;;38.53;18.17;;;6.50;84.50;;;;;;5081862;28;20188;-93
2023/02/18 02:04:21;;;;;;;40.20;22.27;;;6.10;88.10;;;;;;5203395;22;20229;-93
2023/02/18 02:06:47;;;;;;;37.07;22.27;;;6.10;88.00;;;;;;5003045;28;20192;-92
2023/02/18 02:09:21;;;;;;;39.47;22.20;;;6.10;87.90;;;;;;5003055;28;20181;-92
2023/02/18 02:12:13;;;;;;;40.70;23.13;;;6.10;87.90;;;;;;5003634;28;20169;-92
2023/02/18 02:15:08;;;;;;;44.80;23.83;;;6.20;87.80;;;;;;5003704;28;20197;-92
2023/02/18 02:17:58;;;;;;;35.53;22.03;;;6.20;87.60;;;;;;5002432;28;20174;-92
2023/02/18 02:20:42;;;;;;;40.00;23.03;;;6.10;87.90;;;;;;5002591;28;20173;-92
2023/02/18 02:23:43;;;;;;;36.93;21.37;;;6.10;87.70;;;;;;5001898;28;20174;-93
2023/02/18 02:26:40;;;;;;;31.40;23.10;;;6.10;87.80;;;;;;5002483;28;20244;-92
2023/02/18 02:29:47;;;;;;;37.10;22.80;;;6.00;87.90;;;;;;4980667;28;20671;-92
2023/02/18 02:32:54;;;;;;;38.67;24.43;;;6.00;88.10;;;;;;5002109;28;20176;-92
2023/02/18 02:35:58;;;;;;;33.80;21.73;;;5.90;88.30;;;;;;4989729;28;20263;-92
2023/02/18 02:39:04;;;;;;;34.07;22.37;;;6.00;88.00;;;;;;4988084;28;20193;-92
2023/02/18 02:41:53;;;;;;;35.50;22.07;;;6.00;88.10;;;;;;5002746;28;20241;-92
2023/02/18 02:44:33;;;;;;;34.30;22.17;;;6.00;88.10;;;;;;4989120;28;20213;-92
2023/02/18 02:47:13;;;;;;;39.87;22.50;;;5.90;88.20;;;;;;5002796;28;20185;-92
2023/02/18 02:50:00;;;;;;;29.23;20.93;;;6.00;88.30;;;;;;5003322;28;20177;-92
2023/02/18 02:52:30;;;;;;;23.53;21.33;;;6.00;88.00;;;;;;5002231;28;20180;-92
2023/02/18 02:54:56;;;;;;;35.67;22.40;;;6.00;88.00;;;;;;5001958;28;20205;-92
2023/02/18 02:57:22;;;;;;;35.83;22.37;;;6.00;88.10;;;;;;5001671;28;20243;-92
2023/02/18 03:00:03;;;;;;;47.07;22.87;;;6.00;88.20;;;;;;5001572;28;20189;-92
2023/02/18 03:02:47;;;;;;;34.87;22.00;;;6.00;88.30;;;;;;5003061;28;20234;-92
2023/02/18 03:05:49;;;;;;;44.20;24.27;;;6.00;88.40;;;;;;5001069;28;20614;-92
2023/02/18 03:08:24;;;;;;;30.37;23.00;;;6.00;88.40;;;;;;5001583;28;20323;-92
2023/02/18 03:11:03;;;;;;;30.03;23.37;;;6.00;88.70;;;;;;5001129;28;20181;-92
2023/02/18 03:13:47;;;;;;;34.93;22.33;;;6.00;88.80;;;;;;5001443;28;20713;-92
2023/02/18 03:16:25;;;;;;;37.37;24.43;;;6.00;88.60;;;;;;5001729;28;20200;-92
2023/02/18 03:19:01;;;;;;;42.63;23.80;;;6.00;88.90;;;;;;5000166;28;20173;-92
2023/02/18 03:21:35;;;;;;;42.90;24.33;;;6.10;88.70;;;;;;5001774;28;20181;-91
2023/02/18 03:24:12;;;;;;;30.37;24.03;;;6.10;88.80;;;;;;5002123;28;20207;-92
2023/02/18 03:26:44;;;;;;;31.13;22.80;;;6.10;88.80;;;;;;5001428;28;20207;-92
2023/02/18 03:29:12;;;;;;;32.90;23.40;;;6.10;88.70;;;;;;5001469;28;20169;-93
2023/02/18 03:31:42;;;;;;;27.57;20.53;;;6.10;88.60;;;;;;5001652;28;20582;-92
2023/02/18 03:34:12;;;;;;;34.80;20.27;;;6.20;88.00;;;;;;5003111;28;20165;-92
2023/02/18 03:36:38;;;;;;;22.97;19.67;;;6.30;87.20;;;;;;5001800;28;20201;-92
2023/02/18 03:39:09;;;;;;;26.27;19.83;;;6.30;86.90;;;;;;5001873;28;20180;-92
2023/02/18 03:41:35;;;;;;;29.43;17.53;;;6.30;87.10;;;;;;5002079;28;20169;-92
2023/02/18 03:44:07;;;;;;;25.73;19.57;;;6.30;87.00;;;;;;5002122;28;20282;-92
2023/02/18 03:46:34;;;;;;;26.60;20.37;;;6.30;87.00;;;;;;5002363;28;20189;-92
2023/02/18 03:49:00;;;;;;;30.80;18.23;;;6.30;87.00;;;;;;5002444;28;20169;-92
2023/02/18 03:51:26;;;;;;;30.33;19.40;;;6.30;87.00;;;;;;5002349;28;20177;-92
2023/02/18 03:53:51;;;;;;;27.13;21.40;;;6.30;87.00;;;;;;5000663;28;20189;-92
2023/02/18 03:56:17;;;;;;;30.20;22.33;;;6.30;87.60;;;;;;5000732;28;20262;-91
2023/02/18 03:58:43;;;;;;;32.27;22.33;;;6.20;88.30;;;;;;5001578;28;20177;-92
2023/02/18 04:01:09;;;;;;;33.83;20.93;;;6.20;88.70;;;;;;5004247;28;20174;-92
2023/02/18 04:03:34;;;;;;;24.70;22.20;;;6.20;88.70;;;;;;5002194;28;20275;-92
2023/02/18 04:06:00;;;;;;;31.50;24.10;;;6.10;89.30;;;;;;5002280;28;20205;-92
2023/02/18 04:08:26;;;;;;;25.93;23.37;;;6.10;89.50;;;;;;5001373;28;20185;-92
2023/02/18 04:10:51;;;;;;;30.33;22.63;;;6.10;89.50;;;;;;5002751;28;20204;-92
2023/02/18 04:13:17;;;;;;;30.30;22.97;;;6.10;89.20;;;;;;5003560;28;20192;-92
2023/02/18 04:15:44;;;;;;;26.87;22.73;;;6.10;89.20;;;;;;5003519;28;20292;-92
2023/02/18 04:18:18;;;;;;;30.13;23.13;;;6.10;89.40;;;;;;5005768;28;20547;-92
2023/02/18 04:20:48;;;;;;;26.30;23.93;;;6.10;89.40;;;;;;5004936;28;20187;-92
2023/02/18 04:23:16;;;;;;;26.87;23.70;;;6.10;89.40;;;;;;5005730;28;20637;-92
2023/02/18 04:25:45;;;;;;;26.63;23.20;;;6.10;89.40;;;;;;5005725;28;20267;-92
2023/02/18 04:28:13;;;;;;;27.90;23.43;;;6.10;89.40;;;;;;5006928;28;20177;-92
2023/02/18 04:30:43;;;;;;;26.60;23.63;;;6.10;89.40;;;;;;5005331;28;20182;-92
2023/02/18 04:33:13;;;;;;;25.10;22.50;;;6.00;89.60;;;;;;5006652;28;20170;-93
2023/02/18 04:35:44;;;;;;;34.63;26.90;;;6.00;89.60;;;;;;5008149;28;20292;-93
2023/02/18 04:38:16;;;;;;;30.43;25.60;;;5.90;89.90;;;;;;5009848;28;20170;-92
2023/02/18 04:40:42;;;;;;;35.37;26.10;;;5.90;90.10;;;;;;5007409;28;20189;-93
2023/02/18 04:43:11;;;;;;;28.77;25.67;;;5.90;89.90;;;;;;5011129;28;20241;-93
2023/02/18 04:45:36;;;;;;;35.37;28.83;;;5.90;90.10;;;;;;5009896;28;20212;-93
2023/02/18 04:48:08;;;;;;;28.57;25.87;;;5.90;90.20;;;;;;5010051;28;20177;-92
2023/02/18 04:50:36;;;;;;;29.77;26.67;;;5.90;90.20;;;;;;5011466;28;20177;-93
2023/02/18 04:53:13;;;;;;;31.63;28.23;;;5.90;90.40;;;;;;5015193;28;20181;-92
2023/02/18 06:19:08;;;;;;;55.47;50.57;;;5.60;93.10;;;;;;2587016;23;20688;-94
2023/02/18 08:58:44;;;;;;;133.13;124.03;;;5.90;95.10;;;;;;5525355;23;20243;-90
2023/02/18 09:01:15;;;;;;;135.87;127.17;;;5.80;95.10;;;;;;4937758;28;20176;-93
2023/02/18 09:04:08;;;;;;;;;;;;;;;;;;;;;
2023/02/18 09:06:43;;;;;;;143.97;134.37;;;5.90;95.20;;;;;;5056009;23;20263;-93
2023/02/18 09:14:20;;;;;;;149.43;140.47;;;6.00;95.20;;;;;;5915671;23;20235;-93
2023/02/18 09:21:56;;;;;;;158.27;148.33;;;6.00;95.20;;;;;;4951477;26;20223;-92
2023/02/18 09:24:23;;;;;;;164.30;153.90;;;6.00;95.20;;;;;;4940453;29;20302;-92
2023/02/18 09:26:49;;;;;;;161.23;151.53;;;6.00;95.20;;;;;;4938958;29;20239;-93
2023/02/18 09:29:19;;;;;;;166.73;156.37;;;6.00;95.20;;;;;;4946855;28;20176;-93
2023/02/18 09:32:45;;;;;;;169.03;157.70;;;6.00;95.20;;;;;;4946319;28;20176;-94
2023/02/18 09:35:11;;;;;;;171.40;161.03;;;6.00;95.20;;;;;;4945393;28;20204;-93
2023/02/18 09:37:38;;;;;;;175.13;164.63;;;6.10;95.20;;;;;;4944812;29;20194;-93
2023/02/18 09:40:10;;;;;;;182.57;171.23;;;6.10;95.20;;;;;;4946512;28;20152;-93
2023/02/18 10:24:28;;;;;;;194.63;183.30;;;6.40;95.40;;;;;;3300161;26;20211;-94
2023/02/18 10:26:54;;;;;;;192.60;181.57;;;6.40;95.40;;;;;;4938548;29;20194;-95
2023/02/18 10:29:31;;;;;;;199.83;188.73;;;6.40;95.40;;;;;;4921816;29;20169;-95
2023/02/18 10:52:39;;;;;;;217.83;206.17;;;6.70;95.40;;;;;;4931692;29;20241;-92
2023/02/18 10:55:09;;;;;;;216.90;205.43;;;6.70;95.40;;;;;;4918722;29;20295;-93
2023/02/18 10:57:54;;;;;;;217.43;205.83;;;6.70;95.40;;;;;;4919316;29;20648;-92
2023/02/18 11:00:25;;;;;;;215.00;203.40;;;6.80;95.40;;;;;;4918674;29;20188;-92
2023/02/18 11:03:15;;;;;;;214.30;202.57;;;6.70;95.40;;;;;;4924215;28;20201;-94
2023/02/18 11:05:42;;;;;;;219.90;208.03;;;6.80;95.40;;;;;;4925903;29;20221;-94
2023/02/18 11:08:15;;;;;;;221.27;209.57;;;6.80;95.40;;;;;;4926534;28;20180;-96
2023/02/18 11:11:17;;;;;;;235.57;223.23;;;6.80;95.40;;;;;;4926269;28;20192;-93
2023/02/18 11:13:56;;;;;;;237.67;225.13;;;6.80;95.40;;;;;;4926084;29;20180;-93
2023/02/18 11:16:34;;;;;;;244.17;231.40;;;6.80;95.40;;;;;;4926297;28;20217;-96
2023/02/18 11:40:19;;;;;;;150.70;142.50;;;8.20;96.40;;;;;;5455412;23;20230;-93
2023/02/18 11:53:35;;;;;;;148.07;140.07;;;9.00;96.40;;;;;;5271802;23;20243;-92
2023/02/18 12:03:54;;;;;;;155.10;146.07;;;9.00;96.10;;;;;;4965365;23;20206;-93
2023/02/18 12:06:44;;;;;;;153.93;145.07;;;9.00;95.80;;;;;;4936953;28;20215;-93
2023/02/18 12:09:26;;;;;;;145.87;137.20;;;9.00;95.60;;;;;;4922649;29;20217;-93
2023/02/18 12:12:08;;;;;;;151.30;141.90;;;9.00;95.40;;;;;;4932810;29;20171;-92
2023/02/18 12:14:38;;;;;;;152.73;143.53;;;9.00;95.40;;;;;;4926667;29;20164;-93
2023/02/18 12:17:27;;;;;;;161.80;151.80;;;9.00;95.30;;;;;;4925954;29;20208;-93
2023/02/18 12:20:12;;;;;;;160.37;149.77;;;9.00;95.20;;;;;;4959121;23;20594;-92
2023/02/18 12:22:52;;;;;;;162.30;151.83;;;9.00;95.20;;;;;;4929347;29;20172;-93
2023/02/18 12:25:47;;;;;;;165.50;154.87;;;9.00;95.20;;;;;;4935034;28;20243;-92
2023/02/18 12:28:36;;;;;;;168.17;157.17;;;8.90;95.20;;;;;;4931948;29;20203;-92
2023/02/18 12:31:35;;;;;;;163.97;152.97;;;8.90;95.20;;;;;;4933372;29;20621;-94
2023/02/18 12:34:16;;;;;;;169.20;159.20;;;8.90;95.30;;;;;;4934456;29;20275;-93
2023/02/18 12:37:31;;;;;;;173.10;163.00;;;8.90;95.30;;;;;;4932582;29;20302;-93
2023/02/18 12:40:05;;;;;;;168.00;156.77;;;8.90;95.40;;;;;;4931931;29;20187;-92
2023/02/18 12:42:53;;;;;;;164.43;154.73;;;8.90;95.40;;;;;;4934981;29;20179;-94
2023/02/18 12:45:29;;;;;;;169.57;158.00;;;8.90;95.50;;;;;;4933828;29;20675;-93
2023/02/18 12:48:35;;;;;;;;;;;;;;;;;;;;;
2023/02/18 12:51:35;;;;;;;163.43;153.07;;;8.90;95.40;;;;;;5238940;23;20687;-91
2023/02/18 12:54:37;;;;;;;160.90;150.07;;;8.90;95.40;;;;;;4910173;29;20184;-92
2023/02/18 12:57:23;;;;;;;165.37;154.73;;;8.80;95.30;;;;;;4911948;29;20536;-93
2023/02/18 12:59:55;;;;;;;158.27;147.50;;;8.90;95.10;;;;;;4906233;29;20180;-91
2023/02/18 13:02:59;;;;;;;148.27;137.53;;;8.90;94.90;;;;;;4907676;29;20212;-93
2023/02/18 13:05:55;;;;;;;154.93;144.43;;;8.90;94.70;;;;;;4892869;29;20208;-93
2023/02/18 13:08:46;;;;;;;163.50;152.43;;;9.00;94.80;;;;;;4913749;29;20180;-94
2023/02/18 13:11:34;;;;;;;146.93;136.90;;;8.90;94.80;;;;;;4907539;29;20585;-93
2023/02/18 13:14:00;;;;;;;165.57;154.17;;;8.90;94.70;;;;;;4915770;29;20197;-93
2023/02/18 13:16:27;;;;;;;172.37;159.97;;;8.90;94.80;;;;;;4917205;29;20219;-93
2023/02/18 13:19:14;;;;;;;171.43;160.10;;;8.80;94.80;;;;;;4914541;29;20180;-93
2023/02/18 13:21:45;;;;;;;166.43;155.87;;;8.80;94.90;;;;;;4913303;29;20172;-94
2023/02/18 13:24:29;;;;;;;171.00;158.50;;;8.80;94.90;;;;;;4916492;29;20185;-93
2023/02/18 13:27:19;;;;;;;169.10;157.67;;;8.80;94.90;;;;;;4911821;29;20184;-93
2023/02/18 13:29:53;;;;;;;176.90;164.23;;;8.70;94.80;;;;;;4915820;29;20205;-93
2023/02/18 13:32:53;;;;;;;169.90;158.43;;;8.60;94.80;;;;;;4914377;29;20188;-93
2023/02/18 13:35:23;;;;;;;180.80;168.17;;;8.50;94.80;;;;;;4918153;29;20201;-94
2023/02/18 13:37:58;;;;;;;179.93;167.27;;;8.40;94.80;;;;;;4921987;29;20283;-93
2023/02/18 14:14:24;;;;;;;193.23;182.83;;;7.60;95.00;;;;;;5120069;23;20247;-90
2023/02/18 14:17:20;;;;;;;193.20;182.97;;;7.70;95.00;;;;;;4919575;29;20269;-92
2023/02/18 14:20:12;;;;;;;164.03;155.23;;;7.50;94.90;;;;;;4923925;29;20189;-93
2023/02/18 14:22:51;;;;;;;171.17;161.97;;;7.00;94.40;;;;;;4919039;29;20177;-93
2023/02/18 14:25:20;;;;;;;137.90;130.33;;;6.80;94.40;;;;;;4919570;29;20227;-92
2023/02/18 14:27:53;;;;;;;146.73;138.60;;;6.40;94.10;;;;;;4916262;29;20672;-93
2023/02/18 14:30:22;;;;;;;163.10;154.30;;;6.30;94.20;;;;;;4921517;29;20187;-93
2023/02/18 14:32:55;;;;;;;156.60;148.03;;;6.40;94.30;;;;;;4924924;29;20224;-93
2023/02/18 14:35:29;;;;;;;153.93;145.57;;;6.30;94.10;;;;;;4924099;29;20184;-92
2023/02/18 14:38:17;;;;;;;149.33;140.63;;;6.20;94.10;;;;;;4922068;29;20219;-92
2023/02/18 14:41:26;;;;;;;146.67;138.67;;;6.10;94.10;;;;;;4920207;29;20208;-93
2023/02/18 14:44:32;;;;;;;149.97;141.77;;;6.10;94.10;;;;;;4924268;29;20205;-92
2023/02/18 14:47:10;;;;;;;143.13;135.13;;;6.20;94.10;;;;;;4923594;29;20180;-93
2023/02/18 14:49:39;;;;;;;152.87;144.63;;;6.20;94.10;;;;;;4922801;29;20231;-92
2023/02/18 14:52:11;;;;;;;154.33;145.60;;;6.30;94.20;;;;;;4919410;29;20177;-90
2023/02/18 14:54:40;;;;;;;140.70;133.10;;;6.50;94.30;;;;;;4901131;29;20268;-88
2023/02/18 14:57:11;;;;;;;149.03;140.83;;;6.50;94.30;;;;;;4917983;29;20204;-89
2023/02/18 14:59:41;;;;;;;140.47;132.87;;;6.70;94.40;;;;;;4901650;29;20641;-89
2023/02/18 15:02:26;;;;;;;140.80;133.20;;;6.80;94.40;;;;;;4901144;29;20212;-88
2023/02/18 15:04:53;;;;;;;129.17;121.97;;;7.00;94.40;;;;;;4901437;29;20219;-88
2023/02/18 15:07:20;;;;;;;110.30;104.23;;;7.20;94.40;;;;;;4901246;29;20180;-89
2023/02/18 15:09:52;;;;;;;105.43;99.43;;;7.20;94.20;;;;;;4901185;29;20181;-88
2023/02/18 15:12:21;;;;;;;97.70;92.20;;;7.30;94.10;;;;;;4900846;29;20643;-89
2023/02/18 15:14:51;;;;;;;90.60;85.63;;;7.30;94.00;;;;;;4900700;29;20251;-90
2023/02/18 15:17:20;;;;;;;84.30;79.70;;;7.10;93.40;;;;;;4900681;29;20189;-89
2023/02/18 15:19:58;;;;;;;88.67;83.80;;;6.80;93.30;;;;;;4900690;29;20184;-90
2023/02/18 15:22:29;;;;;;;83.87;79.30;;;7.00;93.30;;;;;;4900827;29;20185;-90
2023/02/18 15:24:56;;;;;;;81.10;76.50;;;7.20;93.30;;;;;;4905021;29;20221;-92
2023/02/18 15:27:28;;;;;;;71.63;67.73;;;7.20;93.00;;;;;;4908559;29;20183;-90
2023/02/18 15:30:03;;;;;;;64.07;60.53;;;7.30;92.90;;;;;;4900618;29;20181;-89
2023/02/18 15:32:31;;;;;;;67.93;64.23;;;7.30;92.70;;;;;;4900400;29;20195;-90
2023/02/18 15:35:02;;;;;;;65.03;61.33;;;7.30;92.50;;;;;;4917085;29;20243;-90
2023/02/18 15:37:28;;;;;;;71.23;67.33;;;7.10;92.00;;;;;;4901446;29;20185;-89
2023/02/18 15:39:54;;;;;;;75.00;70.90;;;7.20;92.20;;;;;;4917315;29;20567;-89
2023/02/18 15:42:29;;;;;;;70.00;66.10;;;6.80;91.70;;;;;;4900654;29;20196;-89
2023/02/18 15:45:14;;;;;;;71.03;67.07;;;6.70;91.70;;;;;;4900845;29;20293;-89
2023/02/18 15:47:46;;;;;;;68.57;64.77;;;6.70;91.80;;;;;;4917509;29;20172;-89
2023/02/18 15:50:19;;;;;;;66.27;62.57;;;6.70;91.70;;;;;;4901117;29;20181;-89
2023/02/18 15:52:45;;;;;;;75.53;71.43;;;6.50;91.40;;;;;;4900158;29;20693;-89
2023/02/18 15:55:19;;;;;;;72.97;68.90;;;6.60;91.60;;;;;;4900219;29;20295;-89
2023/02/18 15:57:44;;;;;;;62.90;59.00;;;6.50;91.50;;;;;;4900199;29;20272;-89
2023/02/18 16:00:15;;;;;;;62.00;58.50;;;6.40;91.60;;;;;;4900187;29;20601;-89
2023/02/18 16:03:00;;;;;;;58.43;55.13;;;6.30;91.30;;;;;;4916862;29;20277;-89
2023/02/18 16:05:28;;;;;;;63.30;59.80;;;6.20;91.60;;;;;;4899895;29;20247;-89
2023/02/18 16:08:01;;;;;;;63.27;59.77;;;6.10;91.60;;;;;;4899999;29;20208;-89
2023/02/18 16:10:35;;;;;;;64.57;60.97;;;6.00;91.60;;;;;;4900044;29;20187;-89
2023/02/18 16:13:03;;;;;;;64.50;60.97;;;6.00;91.70;;;;;;4900023;29;20177;-89
2023/02/18 16:15:30;;;;;;;66.20;62.47;;;6.00;91.80;;;;;;4899817;29;20225;-89
2023/02/18 16:17:57;;;;;;;64.70;61.13;;;6.10;91.80;;;;;;4900418;29;20184;-89
2023/02/18 16:20:35;;;;;;;67.40;63.70;;;6.00;91.70;;;;;;4916917;29;20177;-89
2023/02/18 16:23:09;;;;;;;60.07;56.77;;;6.10;91.80;;;;;;4900745;29;20181;-89
2023/02/18 16:25:43;;;;;;;62.37;58.90;;;6.10;91.80;;;;;;4916631;29;20212;-89
2023/02/18 16:28:30;;;;;;;67.07;63.37;;;6.00;91.70;;;;;;4899878;29;20206;-89
2023/02/18 16:30:56;;;;;;;62.00;58.60;;;5.90;91.60;;;;;;4916873;29;20200;-89
2023/02/18 16:33:21;;;;;;;68.70;64.83;;;5.80;91.50;;;;;;4899749;29;20207;-89
2023/02/18 16:35:47;;;;;;;66.77;63.07;;;5.80;91.70;;;;;;4917016;29;20200;-88
2023/02/18 16:38:20;;;;;;;69.27;65.37;;;5.60;91.60;;;;;;4899728;29;20279;-89
2023/02/18 16:40:46;;;;;;;70.10;66.10;;;5.60;91.60;;;;;;4900007;29;20184;-89
2023/02/18 16:43:19;;;;;;;65.20;61.50;;;5.50;91.60;;;;;;4899745;29;20189;-89
2023/02/18 16:45:54;;;;;;;72.20;67.87;;;5.40;91.60;;;;;;4900476;29;20221;-89
2023/02/18 16:48:30;;;;;;;69.17;65.27;;;5.60;91.70;;;;;;4902818;29;20184;-90
2023/02/18 16:50:59;;;;;;;63.23;59.63;;;5.70;91.80;;;;;;4903499;29;20188;-89
2023/02/18 16:53:24;;;;;;;62.50;59.00;;;5.50;91.60;;;;;;4903677;29;20185;-89
2023/02/18 16:55:50;;;;;;;67.03;63.23;;;5.50;91.50;;;;;;4905183;29;20257;-90
2023/02/18 16:58:16;;;;;;;61.63;58.13;;;5.40;91.40;;;;;;4903165;29;20264;-89
2023/02/18 17:00:43;;;;;;;62.57;58.87;;;5.50;91.50;;;;;;4920139;29;20604;-89
2023/02/18 17:03:09;;;;;;;67.73;63.93;;;5.40;91.40;;;;;;4903588;29;20185;-89
2023/02/18 17:05:39;;;;;;;65.73;62.03;;;5.30;91.50;;;;;;4903070;29;20220;-89
2023/02/18 17:08:23;;;;;;;71.57;67.57;;;5.30;91.50;;;;;;4903035;29;20181;-90
2023/02/18 17:10:56;;;;;;;76.87;72.57;;;4.90;91.10;;;;;;4903082;29;20191;-89
2023/02/18 17:13:26;;;;;;;89.43;84.47;;;4.80;91.40;;;;;;4903003;29;20185;-89
2023/02/18 17:15:54;;;;;;;76.40;72.10;;;4.80;91.60;;;;;;4902855;29;20208;-89
2023/02/18 17:18:19;;;;;;;74.33;70.20;;;4.70;91.70;;;;;;4903269;29;20188;-89
2023/02/18 17:20:47;;;;;;;82.10;77.30;;;4.80;91.90;;;;;;4902986;29;20184;-89
2023/02/18 17:23:20;;;;;;;78.67;73.97;;;4.80;91.90;;;;;;4919652;29;20212;-89
2023/02/18 17:25:47;;;;;;;77.57;72.97;;;4.80;92.00;;;;;;4919747;29;20208;-89
2023/02/18 17:28:14;;;;;;;75.83;71.53;;;4.80;92.10;;;;;;4902691;29;20653;-89
2023/02/18 17:30:40;;;;;;;80.53;75.93;;;4.80;92.10;;;;;;4919574;29;20184;-89
2023/02/18 17:33:11;;;;;;;80.87;76.17;;;4.80;92.10;;;;;;4902847;29;20653;-89
2023/02/18 17:35:37;;;;;;;81.93;77.30;;;4.70;92.10;;;;;;4902657;29;20631;-89
2023/02/18 17:38:11;;;;;;;89.43;84.33;;;4.70;92.30;;;;;;4903374;29;20241;-89
2023/02/18 17:40:36;;;;;;;91.10;85.90;;;4.70;92.60;;;;;;4902432;29;20181;-88
2023/02/18 17:43:02;;;;;;;88.67;83.57;;;4.70;92.90;;;;;;4902784;29;20732;-88
2023/02/18 17:45:34;;;;;;;95.10;89.50;;;4.70;93.00;;;;;;4902326;29;20729;-88
2023/02/18 17:48:00;;;;;;;87.80;82.70;;;4.70;93.20;;;;;;4903116;29;20586;-88
2023/02/18 17:50:27;;;;;;;93.80;88.33;;;4.70;93.30;;;;;;4902216;29;20184;-88
2023/02/18 17:52:54;;;;;;;93.77;88.10;;;4.60;93.40;;;;;;4902329;29;20264;-89
2023/02/18 17:55:30;;;;;;;96.13;90.53;;;4.60;93.50;;;;;;4902174;29;20216;-88
2023/02/18 17:57:56;;;;;;;94.63;88.83;;;4.50;93.70;;;;;;4901948;29;20180;-89
2023/02/18 18:00:34;;;;;;;95.93;89.80;;;4.60;93.80;;;;;;4902290;29;20188;-89
2023/02/18 18:03:01;;;;;;;95.87;90.03;;;4.50;93.70;;;;;;4919112;29;20169;-89
2023/02/18 18:05:36;;;;;;;95.80;90.20;;;4.50;93.80;;;;;;4902583;29;20229;-89
2023/02/18 18:08:02;;;;;;;97.80;91.97;;;4.40;93.80;;;;;;4902790;29;20191;-89
2023/02/18 18:10:32;;;;;;;94.47;88.87;;;4.40;93.80;;;;;;4902163;29;20187;-89
2023/02/18 18:12:59;;;;;;;90.77;85.47;;;4.30;93.80;;;;;;4902538;29;20704;-87
2023/02/18 18:15:29;;;;;;;94.87;89.43;;;4.30;93.90;;;;;;4918788;29;20262;-87
2023/02/18 18:17:57;;;;;;;97.57;91.80;;;4.30;93.90;;;;;;4918744;29;20231;-88
2023/02/18 18:20:23;;;;;;;102.53;96.53;;;4.20;93.90;;;;;;4918801;29;20757;-90
2023/02/18 18:22:51;;;;;;;103.30;97.00;;;4.20;94.00;;;;;;4901815;29;20291;-88
2023/02/18 18:25:21;;;;;;;104.37;98.27;;;4.10;93.90;;;;;;4901629;29;20364;-89
2023/02/18 18:27:51;;;;;;;102.53;96.43;;;4.00;94.00;;;;;;4901591;29;20608;-89
2023/02/18 18:30:21;;;;;;;99.23;93.47;;;4.10;94.10;;;;;;4902031;29;20183;-89
2023/02/18 18:32:46;;;;;;;101.57;95.60;;;4.20;94.10;;;;;;4902525;29;20184;-89
2023/02/18 18:35:27;;;;;;;99.97;94.17;;;4.20;94.10;;;;;;4918653;29;20216;-89
2023/02/18 18:37:54;;;;;;;98.33;92.73;;;4.10;94.00;;;;;;4901537;29;20731;-89
2023/02/18 18:40:21;;;;;;;108.43;102.27;;;3.90;93.90;;;;;;4902285;29;20608;-89
2023/02/18 18:42:47;;;;;;;106.40;100.20;;;3.90;94.00;;;;;;4901390;29;20235;-89
2023/02/18 18:45:25;;;;;;;106.83;100.83;;;3.90;94.10;;;;;;4918218;29;20215;-89
2023/02/18 18:47:51;;;;;;;110.10;103.80;;;3.80;94.10;;;;;;4901365;29;20652;-89
2023/02/18 18:50:18;;;;;;;112.87;106.47;;;3.70;94.10;;;;;;4904142;29;20183;-90
2023/02/18 18:52:45;;;;;;;113.87;107.43;;;3.60;94.20;;;;;;4901039;29;20235;-90
2023/02/18 18:55:24;;;;;;;104.73;98.90;;;3.60;94.30;;;;;;4901429;29;20688;-90
2023/02/18 18:57:49;;;;;;;109.77;103.40;;;3.70;94.40;;;;;;4901099;29;20188;-89
2023/02/18 19:00:17;;;;;;;106.33;100.23;;;3.60;94.30;;;;;;4901132;29;20184;-90
2023/02/18 19:02:43;;;;;;;108.20;102.03;;;3.60;94.40;;;;;;4901060;29;20660;-91
2023/02/18 19:05:21;;;;;;;112.87;106.57;;;3.50;94.40;;;;;;4901178;29;20317;-90
2023/02/18 19:07:47;;;;;;;115.83;109.30;;;3.60;94.40;;;;;;4901040;29;20177;-92
2023/02/18 19:10:13;;;;;;;113.90;107.53;;;3.50;94.40;;;;;;4900441;29;20242;-91
2023/02/18 19:12:38;;;;;;;112.37;105.93;;;3.50;94.50;;;;;;4900791;29;20180;-90
2023/02/18 19:15:04;;;;;;;117.17;110.37;;;3.50;94.50;;;;;;4900731;29;20220;-90
2023/02/18 19:17:29;;;;;;;117.00;110.37;;;3.40;94.50;;;;;;4900752;29;20191;-90
2023/02/18 19:19:55;;;;;;;117.20;110.50;;;3.40;94.60;;;;;;4900699;29;20601;-90
2023/02/18 19:22:20;;;;;;;117.53;111.07;;;3.40;94.60;;;;;;4900781;29;20642;-90
2023/02/18 19:24:46;;;;;;;116.33;109.63;;;3.40;94.70;;;;;;4900782;29;20248;-90
2023/02/18 19:27:13;;;;;;;118.53;111.87;;;3.50;94.80;;;;;;4900798;29;20206;-89
2023/02/18 19:29:39;;;;;;;116.70;110.10;;;3.40;94.80;;;;;;4900459;29;20172;-90
2023/02/18 19:32:04;;;;;;;114.83;107.73;;;3.40;94.80;;;;;;4900508;29;20721;-90
2023/02/18 19:34:30;;;;;;;118.20;111.43;;;3.30;94.80;;;;;;4900667;29;20182;-90
2023/02/18 19:36:56;;;;;;;118.50;111.70;;;3.30;94.80;;;;;;4900505;29;20189;-90
2023/02/18 19:39:21;;;;;;;119.17;112.17;;;3.30;94.80;;;;;;4900461;29;20189;-90
2023/02/18 19:41:47;;;;;;;122.67;115.70;;;3.30;94.80;;;;;;4917335;29;20186;-90
2023/02/18 19:44:12;;;;;;;122.50;115.53;;;3.30;94.90;;;;;;4900174;29;20187;-89
2023/02/18 19:46:38;;;;;;;125.20;117.73;;;3.30;94.90;;;;;;4900341;29;20198;-90
2023/02/18 19:49:03;;;;;;;124.60;117.27;;;3.30;94.90;;;;;;4900150;29;20181;-90
2023/02/18 19:51:29;;;;;;;126.30;118.93;;;3.30;94.90;;;;;;4900410;29;20189;-90
2023/02/18 19:53:54;;;;;;;128.43;120.80;;;3.30;94.90;;;;;;4900292;29;20310;-89
2023/02/18 19:56:20;;;;;;;123.83;116.43;;;3.20;94.90;;;;;;4917065;29;20290;-89
2023/02/18 19:58:46;;;;;;;131.93;124.20;;;3.20;94.90;;;;;;4900940;29;20276;-89
2023/02/18 20:01:16;;;;;;;125.80;118.13;;;3.20;95.00;;;;;;4901005;29;20186;-89
2023/02/18 20:03:42;;;;;;;135.53;126.83;;;3.20;95.00;;;;;;4900113;29;20180;-89
2023/02/18 20:06:18;;;;;;;140.60;131.97;;;3.20;95.00;;;;;;4916866;29;20236;-90
2023/02/18 20:08:45;;;;;;;139.40;130.50;;;3.20;95.10;;;;;;4900201;29;20181;-90
2023/02/18 20:11:10;;;;;;;145.07;135.77;;;3.20;95.10;;;;;;4916958;29;20163;-89
2023/02/18 20:13:36;;;;;;;135.17;126.57;;;3.20;95.20;;;;;;4900108;29;20201;-89
2023/02/18 20:16:05;;;;;;;139.90;131.37;;;3.20;95.10;;;;;;4899939;29;20205;-89
2023/02/18 20:18:31;;;;;;;141.60;132.47;;;3.20;95.20;;;;;;4900848;29;20185;-89
2023/02/18 20:20:57;;;;;;;146.30;137.03;;;3.20;95.20;;;;;;4901003;29;20196;-89
2023/02/18 20:23:23;;;;;;;143.37;134.37;;;3.30;95.30;;;;;;4903837;29;20180;-89
2023/02/18 20:25:48;;;;;;;150.30;141.10;;;3.30;95.30;;;;;;4903638;29;20287;-89
2023/02/18 20:28:14;;;;;;;151.97;141.80;;;3.30;95.30;;;;;;4903869;29;20211;-89
2023/02/18 20:30:40;;;;;;;146.20;137.30;;;3.30;95.30;;;;;;4903562;29;20648;-89
2023/02/18 20:33:05;;;;;;;145.43;136.47;;;3.30;95.30;;;;;;4903668;29;20233;-89
2023/02/18 20:35:31;;;;;;;148.60;139.53;;;3.30;95.30;;;;;;4903828;29;20208;-89
2023/02/18 20:37:56;;;;;;;147.03;138.03;;;3.30;95.30;;;;;;4920790;29;20210;-88
2023/02/18 20:40:22;;;;;;;139.53;130.43;;;3.30;95.30;;;;;;4903632;29;20186;-89
2023/02/18 21:35:22;;;;;;;155.03;145.10;;;3.50;95.40;;;;;;5317962;23;20733;-88
2023/02/18 21:37:49;;;;;;;153.53;144.03;;;3.50;95.40;;;;;;4938541;29;20173;-89
2023/02/18 21:40:14;;;;;;;151.20;141.77;;;3.50;95.40;;;;;;4921523;29;20223;-89
2023/02/18 21:42:40;;;;;;;152.07;142.60;;;3.60;95.40;;;;;;4938481;29;20260;-89
2023/02/18 21:45:06;;;;;;;152.83;143.47;;;3.50;95.40;;;;;;4921477;29;20222;-90
2023/02/18 21:47:32;;;;;;;152.33;142.50;;;3.50;95.40;;;;;;4938450;29;20179;-90
2023/02/18 21:49:57;;;;;;;158.30;148.63;;;3.60;95.40;;;;;;4921592;29;20276;-89
2023/02/18 21:52:26;;;;;;;162.13;152.17;;;3.50;95.40;;;;;;4921638;29;20180;-89
2023/02/18 21:54:51;;;;;;;156.40;146.70;;;3.50;95.40;;;;;;4921092;29;20290;-89